Terminal Aerodrome Forecast
Issued by NWS Cleveland, OH

Home | Current Version | Previous Version | Graphics & Text | Print | Product List | Glossary On
Versions: 1 2 3 4 5 6 7 8 9 10 11 12 13 14 15 16
000
FTUS41 KCLE 251723
TAFMFD
TAF
KMFD 251723Z 2518/2618 24009KT P6SM BKN050
     FM252200 08009KT 6SM HZ BKN035
     FM260400 10007KT 5SM BR VCSH SCT020 BKN080
     FM261600 15010KT P6SM VCSH BKN035 OVC080=

USA.gov is the U.S. government's official web portal to all federal, state and local government web resources and services.